Hlavní strana
METAR-TAF:

METAR-TAF

Letiště :

Oujda, Maroko

zeměpisná šířka: 34-47N, zeměpisná délka: 001-56W, výška: 468 m

Aktuální stav počasí

Zpráva byla vytvořena před 21 minutami, v 01:00 UTC
vítr z různých směrů 2 kt
Teplota 11°C
Vlhkost vzduchu 94%
Tlak 1025 hPa
Viditelnost: 6000 m
Polojasno ve výšce 1000 ft
Oblačno až skoro zataženo ve výšce 3000 ft

METAR: GMFO 080100Z VRB02KT 6000 SCT010 BKN030 11/10 Q1025 BECMG 8000 SCT008 SCT030

Čas: 02:21 (01:21 UTC)

Předpověď počasí

Zpráva byla vytvořena před 2 hodinami a 21 minutami, v 23:00 UTC
Předpověď platná od 08 v 00 UTC do 09 v 06 UTC
Jihozápadní vítr 4 kt
Viditelnost: 4000 m
Polojasno ve výšce 1000 ft
Oblačno až skoro zataženo ve výšce 3000 ft
slabý déšť
Změna
od 08 v 08 UTC do 08 v 12 UTC
Jihozápadní vítr 8 kt
Viditelnost 10 km a více
Polojasno ve výšce 1600 ft
Polojasno ve výšce 4000 ft

TAF: GMFO 072300Z 0800/0906 22004KT 4000 -RA SCT010 BKN030 BECMG 0808/0812 23008KT 9999 SCT016 SCT040

Stav a předpovědi počasí z více než 4 000 letišť (zprávy METAR a TAF).

Červené a žluté tečky na mapě představují dostupné meteorologické stanice.

Když kurzor umístíte na tečku, zobrazí se název stanice.

Pak kliknutím zobrazíte stav a předpověď počasí.

Chcete-li změnit mapu, kliknutím na zelené tlačítko se znaménkem +mapu přiblížíte, kliknutím na zelené tlačítko se znaménkem – mapu oddálíte a kliknutím na zelené šipky přejdete na sousední mapy.


METAR-TAF: